createdAt,value
2018-10-03T00:01:38.000Z,10.50
2018-10-03T00:06:28.908Z,10.50
2018-10-03T00:11:19.809Z,10.50
2018-10-03T00:16:11.448Z,10.50
2018-10-03T00:21:02.373Z,10.50
2018-10-03T00:25:53.285Z,10.50
2018-10-03T00:30:44.203Z,10.50
2018-10-03T00:35:35.160Z,10.50
2018-10-03T00:40:26.053Z,10.50
2018-10-03T00:45:16.961Z,10.50
2018-10-03T00:50:07.876Z,10.50
2018-10-03T00:54:59.604Z,10.40
2018-10-03T00:59:50.563Z,10.40
2018-10-03T01:04:41.502Z,10.40
2018-10-03T01:09:33.224Z,10.40
2018-10-03T01:14:24.128Z,10.40
2018-10-03T01:19:15.036Z,10.40
2018-10-03T01:24:06.735Z,10.40
2018-10-03T01:28:57.817Z,10.40
2018-10-03T01:33:48.759Z,10.50
2018-10-03T01:38:40.441Z,10.40
2018-10-03T01:43:32.088Z,10.50
2018-10-03T01:48:22.986Z,10.40
2018-10-03T01:53:14.705Z,10.40
2018-10-03T01:58:05.627Z,10.40
2018-10-03T02:02:57.371Z,10.40
2018-10-03T02:07:48.353Z,10.40
2018-10-03T02:12:39.259Z,10.40
2018-10-03T02:17:30.925Z,10.30
2018-10-03T02:22:21.836Z,10.30
2018-10-03T02:27:12.752Z,10.30
2018-10-03T02:32:03.669Z,10.30
2018-10-03T02:36:54.578Z,10.20
2018-10-03T02:41:45.478Z,10.20
2018-10-03T02:46:37.899Z,10.20
2018-10-03T02:51:29.535Z,10.20
2018-10-03T02:56:20.461Z,10.20
2018-10-03T03:01:11.429Z,10.20
2018-10-03T03:06:02.335Z,10.20
2018-10-03T03:10:53.288Z,10.10
2018-10-03T03:15:44.194Z,10.20
2018-10-03T03:20:35.110Z,10.10
2018-10-03T03:25:26.060Z,10.10
2018-10-03T03:30:17.773Z,10.00
2018-10-03T03:35:08.657Z,10.00
2018-10-03T03:39:59.567Z,10.00
2018-10-03T03:44:51.217Z,10.00
2018-10-03T03:49:42.131Z,10.00
2018-10-03T03:54:33.782Z,9.90
2018-10-03T03:59:24.774Z,9.90
2018-10-03T04:04:16.415Z,9.90
2018-10-03T04:09:07.328Z,9.90
2018-10-03T04:13:58.996Z,9.90
2018-10-03T04:18:50.616Z,9.90
2018-10-03T04:23:41.507Z,9.90
2018-10-03T04:28:32.465Z,9.90
2018-10-03T04:33:23.373Z,9.90
2018-10-03T04:38:14.287Z,9.90
2018-10-03T04:43:05.197Z,9.90
2018-10-03T04:47:56.107Z,9.90
2018-10-03T04:52:47.739Z,9.90
2018-10-03T04:57:38.659Z,9.90
2018-10-03T05:02:30.303Z,9.90
2018-10-03T05:07:21.203Z,9.90
2018-10-03T05:12:12.864Z,10.00
2018-10-03T05:17:03.759Z,10.00
2018-10-03T05:21:55.451Z,10.00
2018-10-03T05:26:46.343Z,10.00
2018-10-03T05:31:44.143Z,10.00
2018-10-03T05:36:35.785Z,10.00
2018-10-03T05:41:26.678Z,9.90
2018-10-03T05:46:18.312Z,10.00
2018-10-03T05:51:09.234Z,10.00
2018-10-03T05:56:00.863Z,10.00
2018-10-03T06:00:51.748Z,10.00
2018-10-03T06:05:42.656Z,10.00
2018-10-03T06:10:34.275Z,10.10
2018-10-03T06:15:25.222Z,10.00
2018-10-03T06:20:16.128Z,10.10
2018-10-03T06:25:07.044Z,10.10
2018-10-03T06:29:58.734Z,10.20
2018-10-03T06:34:49.637Z,10.10
2018-10-03T06:39:40.538Z,10.20
2018-10-03T06:44:31.612Z,10.20
2018-10-03T06:49:22.495Z,10.20
2018-10-03T06:54:14.142Z,10.30
2018-10-03T06:59:05.040Z,10.30
2018-10-03T07:03:56.754Z,10.40
2018-10-03T07:08:47.660Z,10.40
2018-10-03T07:13:38.590Z,10.40
2018-10-03T07:18:30.225Z,10.50
2018-10-03T07:23:21.203Z,10.50
2018-10-03T07:28:12.141Z,10.40
2018-10-03T07:33:03.018Z,10.60
2018-10-03T07:37:53.964Z,10.60
2018-10-03T07:42:44.945Z,10.70
2018-10-03T07:47:35.889Z,10.70
2018-10-03T07:52:26.783Z,10.80
2018-10-03T07:57:17.749Z,10.80
2018-10-03T08:02:09.327Z,11.00
2018-10-03T08:07:00.234Z,11.00
2018-10-03T08:11:51.875Z,11.10
2018-10-03T08:16:42.839Z,11.10
2018-10-03T08:21:33.809Z,11.20
2018-10-03T08:26:24.726Z,11.30
2018-10-03T08:31:16.371Z,11.40
2018-10-03T08:36:07.277Z,11.40
2018-10-03T08:40:58.914Z,11.60
2018-10-03T08:45:49.822Z,11.60
2018-10-03T08:50:41.475Z,11.70
2018-10-03T08:55:32.411Z,11.70
2018-10-03T09:00:23.336Z,11.80
2018-10-03T09:05:14.229Z,11.80
2018-10-03T09:10:05.867Z,11.90
2018-10-03T09:14:56.814Z,11.90
2018-10-03T09:19:47.736Z,12.00
2018-10-03T09:24:39.432Z,12.10
2018-10-03T09:29:31.060Z,12.20
2018-10-03T09:34:21.968Z,12.20
2018-10-03T09:39:12.865Z,12.30
2018-10-03T09:44:03.796Z,12.30
2018-10-03T09:48:55.428Z,12.40
2018-10-03T09:53:46.501Z,12.40
2018-10-03T09:58:37.468Z,12.50
2018-10-03T10:03:28.367Z,12.50
2018-10-03T10:08:19.249Z,12.60
2018-10-03T10:13:10.160Z,12.60
2018-10-03T10:18:01.056Z,12.70
2018-10-03T10:22:52.038Z,12.70
2018-10-03T10:27:42.953Z,12.80
2018-10-03T10:32:34.683Z,12.90
2018-10-03T10:37:25.607Z,12.90
2018-10-03T10:42:17.257Z,13.00
2018-10-03T10:47:08.153Z,13.00
2018-10-03T10:51:59.905Z,13.20
2018-10-03T10:56:50.806Z,13.20
2018-10-03T11:01:42.439Z,13.50
2018-10-03T11:06:33.369Z,13.40
2018-10-03T11:11:24.992Z,13.50
2018-10-03T11:16:15.892Z,13.50
2018-10-03T11:21:06.779Z,13.50
2018-10-03T11:25:58.484Z,13.50
2018-10-03T11:30:49.390Z,13.50
2018-10-03T11:35:40.279Z,13.50
2018-10-03T11:40:31.205Z,13.50
2018-10-03T11:45:22.205Z,13.40
2018-10-03T11:50:13.133Z,13.30
2018-10-03T11:55:04.008Z,13.10
2018-10-03T11:59:55.692Z,13.00
2018-10-03T12:04:47.346Z,13.00
2018-10-03T12:09:38.249Z,12.90
2018-10-03T12:14:29.893Z,13.10
2018-10-03T12:19:20.811Z,13.10
2018-10-03T12:24:12.461Z,13.50
2018-10-03T12:29:03.369Z,13.50
2018-10-03T12:33:55.092Z,13.90
2018-10-03T12:38:45.972Z,13.90
2018-10-03T12:43:36.868Z,14.10
2018-10-03T12:48:27.763Z,14.20
2018-10-03T12:53:19.396Z,14.50
2018-10-03T12:58:10.313Z,14.40
2018-10-03T13:03:02.009Z,14.50
2018-10-03T13:07:52.895Z,14.50
2018-10-03T13:12:43.785Z,14.50
2018-10-03T13:17:34.685Z,14.50
2018-10-03T13:22:25.575Z,14.30
2018-10-03T13:27:17.274Z,14.40
2018-10-03T13:32:08.918Z,14.50
2018-10-03T13:36:59.823Z,14.40
2018-10-03T13:41:51.524Z,14.50
2018-10-03T13:46:42.487Z,14.50
2018-10-03T13:51:33.312Z,14.40
2018-10-03T13:56:24.226Z,14.30
2018-10-03T14:01:15.133Z,14.30
2018-10-03T14:06:06.045Z,14.20
2018-10-03T14:10:57.787Z,14.20
2018-10-03T14:15:48.811Z,14.20
2018-10-03T14:20:39.717Z,14.20
2018-10-03T14:25:30.617Z,14.20
2018-10-03T14:30:21.534Z,14.20
2018-10-03T14:35:12.431Z,14.20
2018-10-03T14:40:03.312Z,14.10
2018-10-03T14:44:54.268Z,14.10
2018-10-03T14:49:45.191Z,14.00
2018-10-03T14:54:36.091Z,14.00
2018-10-03T14:59:27.039Z,13.90
2018-10-03T15:04:18.001Z,13.90
2018-10-03T15:09:08.986Z,13.90
2018-10-03T15:13:59.884Z,13.80
2018-10-03T15:18:50.806Z,13.80
2018-10-03T15:23:41.741Z,13.80
2018-10-03T15:28:33.404Z,13.70
2018-10-03T15:33:24.300Z,13.70
2018-10-03T15:38:16.026Z,13.70
2018-10-03T15:43:06.956Z,13.80
2018-10-03T15:47:58.787Z,13.60
2018-10-03T15:52:49.674Z,13.60
2018-10-03T15:57:40.595Z,13.50
2018-10-03T16:02:31.550Z,13.40
2018-10-03T16:07:23.219Z,13.20
2018-10-03T16:12:14.171Z,13.20
2018-10-03T16:17:05.204Z,13.10
2018-10-03T16:21:56.105Z,13.00
2018-10-03T16:26:47.140Z,12.90
2018-10-03T16:31:38.081Z,12.80
2018-10-03T16:36:29.089Z,12.80
2018-10-03T16:41:20.038Z,12.60
2018-10-03T16:46:10.988Z,12.60
2018-10-03T16:51:01.987Z,12.50
2018-10-03T16:55:53.667Z,12.30
2018-10-03T17:00:44.577Z,12.30
2018-10-03T17:05:35.475Z,12.20
2018-10-03T17:10:26.360Z,12.20
2018-10-03T17:15:18.794Z,12.00
2018-10-03T17:20:09.648Z,12.00
2018-10-03T17:25:01.304Z,11.80
2018-10-03T17:29:52.201Z,11.80
2018-10-03T17:34:43.905Z,11.70
2018-10-03T17:39:35.545Z,11.60
2018-10-03T17:44:26.476Z,11.60
2018-10-03T17:49:17.373Z,11.50
2018-10-03T17:54:08.279Z,11.50
2018-10-03T17:58:59.230Z,11.40
2018-10-03T18:03:50.838Z,11.30
2018-10-03T18:08:41.740Z,11.30
2018-10-03T18:13:32.744Z,11.30
2018-10-03T18:18:23.597Z,11.20
2018-10-03T18:23:15.240Z,11.20
2018-10-03T18:28:06.180Z,11.20
2018-10-03T18:32:57.100Z,11.10
2018-10-03T18:37:49.487Z,11.00
2018-10-03T18:42:40.388Z,11.00
2018-10-03T18:47:32.026Z,11.00
2018-10-03T18:52:23.012Z,11.00
2018-10-03T18:57:14.624Z,10.90
2018-10-03T19:02:05.570Z,10.80
2018-10-03T19:06:56.470Z,10.80
2018-10-03T19:11:47.378Z,10.70
2018-10-03T19:16:38.314Z,10.70
2018-10-03T19:21:29.995Z,10.60
2018-10-03T19:26:21.060Z,10.50
2018-10-03T19:31:12.645Z,10.40
2018-10-03T19:36:03.562Z,10.40
2018-10-03T19:40:55.213Z,10.30
2018-10-03T19:45:46.193Z,10.20
2018-10-03T19:50:37.023Z,10.20
2018-10-03T19:55:27.930Z,10.10
2018-10-03T20:00:18.844Z,10.00
2018-10-03T20:05:09.765Z,10.00
2018-10-03T20:10:00.727Z,9.90
2018-10-03T20:14:51.652Z,9.80
2018-10-03T20:19:42.561Z,9.70
2018-10-03T20:24:33.473Z,9.70
2018-10-03T20:29:24.387Z,9.60
2018-10-03T20:34:16.096Z,9.50
2018-10-03T20:39:06.923Z,9.50
2018-10-03T20:43:57.833Z,9.50
2018-10-03T20:48:48.759Z,9.40
2018-10-03T20:53:41.268Z,9.30
2018-10-03T20:58:32.165Z,9.30
2018-10-03T21:03:23.064Z,9.30
2018-10-03T21:08:14.021Z,9.20
2018-10-03T21:13:04.900Z,9.20
2018-10-03T21:17:55.797Z,9.20
2018-10-03T21:22:47.484Z,9.10
2018-10-03T21:27:38.395Z,9.10
2018-10-03T21:32:30.061Z,9.00
2018-10-03T21:37:20.994Z,9.00
2018-10-03T21:42:11.896Z,8.90
2018-10-03T21:47:03.527Z,8.90
2018-10-03T21:51:54.426Z,8.80
2018-10-03T21:56:45.320Z,8.80
2018-10-03T22:01:36.974Z,8.80
2018-10-03T22:06:27.857Z,8.70
2018-10-03T22:11:18.750Z,8.80
2018-10-03T22:16:09.693Z,8.70
2018-10-03T22:21:00.605Z,8.70
2018-10-03T22:25:51.560Z,8.70
2018-10-03T22:30:42.440Z,8.70
2018-10-03T22:35:33.359Z,8.70
2018-10-03T22:40:24.990Z,8.70
2018-10-03T22:45:15.880Z,8.70
2018-10-03T22:50:06.769Z,8.70
2018-10-03T22:54:57.727Z,8.70
2018-10-03T22:59:48.632Z,8.80
2018-10-03T23:04:45.297Z,8.60
2018-10-03T23:09:36.237Z,8.60
2018-10-03T23:14:27.176Z,8.60
2018-10-03T23:19:18.152Z,8.60
2018-10-03T23:24:09.043Z,8.60
2018-10-03T23:28:59.950Z,8.50
2018-10-03T23:33:50.875Z,8.50
2018-10-03T23:38:41.784Z,8.40
2018-10-03T23:43:32.722Z,8.40
2018-10-03T23:48:23.604Z,8.40
2018-10-03T23:53:14.531Z,8.30
2018-10-03T23:58:05.424Z,8.30
